TAF Text Data
IDs:
Format:
Raw Decoded Include METAR

Data at: 1347 UTC 19 Aug 2019

KAVL 191133Z 1912/2012 VRB02KT P6SM FEW004 SCT130
  FM191300 VRB02KT P6SM FEW080 SCT100
  FM191500 13004KT P6SM SCT045
  FM191900 16004KT P6SM VCTS BKN050CB
  FM192100 17004KT P6SM BKN050
  PROB30 1921/2002 4SM TSRA OVC025CB
  FM200800 00000KT 5SM BR SCT003 BKN150